Terminal Aerodrome Forecast
Issued by NWS

Current Version | Previous Version | Text Only | Print | Product List | Glossary On
Versions: 1 2 3 4 5 6 7 8 9 10 11 12 13 14 15 16 17 18 19
000
FTUS42 KRAH 221120
TAFRWI
TAF
KRWI 221120Z 2212/2312 35005KT P6SM BKN070 BKN250
     FM221300 02012G22KT P6SM SCT050
     FM222100 02011KT P6SM SKC=

USA.gov is the U.S. government's official web portal to all federal, state and local government web resources and services.